Goderich, Canada
Current Conditions -  °F | °C
As of 11:00 AM on Wednesday 28 Jan 2015 (Local Time) from CYXU Reporting Station
Scattered Clouds Scattered Clouds  
Wind Chill: 16°   Ceiling: Unl
Heat Index: 16°   Visibility: 15mi
Dew Point:   Wind: 2mph
Humidity: 68%   Direction: NA
Pressure: 30.32"   Gusts: NA
Location:  43.74°N, 81.71°W
Report Text: CYXU 281600Z VRB02KT 15SM SCT240 M09/M14 A3032 RMK CI3 SLP290
Loading
Personal Weather Stations






























Interactive Weather Map New forecast layout! Learn more

10-Day Weather Forecast

Advertisements
Track Severe Weather on mobile